createdAt,value
2018-02-18T00:00:16.582Z,43.64
2018-02-18T00:01:16.469Z,43.6
2018-02-18T00:02:16.474Z,43.64
2018-02-18T00:03:16.476Z,43.65
2018-02-18T00:04:16.442Z,43.63
2018-02-18T00:05:16.467Z,43.63
2018-02-18T00:06:16.440Z,43.65
2018-02-18T00:07:16.447Z,43.62
2018-02-18T00:08:16.548Z,43.6
2018-02-18T00:09:16.479Z,43.6
2018-02-18T00:10:16.459Z,43.6
2018-02-18T00:11:16.457Z,43.61
2018-02-18T00:12:16.464Z,43.6
2018-02-18T00:13:16.452Z,43.6
2018-02-18T00:14:16.431Z,43.67
2018-02-18T00:15:16.443Z,43.62
2018-02-18T00:16:16.543Z,43.6
2018-02-18T00:17:16.459Z,43.65
2018-02-18T00:18:16.466Z,43.67
2018-02-18T00:19:16.485Z,43.65
2018-02-18T00:20:16.430Z,43.62
2018-02-18T00:21:16.445Z,43.6
2018-02-18T00:22:16.447Z,43.62
2018-02-18T00:23:16.444Z,43.56
2018-02-18T00:24:16.488Z,43.61
2018-02-18T00:25:16.452Z,43.6
2018-02-18T00:26:16.434Z,43.64
2018-02-18T00:27:16.434Z,43.6
2018-02-18T00:28:16.446Z,43.58
2018-02-18T00:29:16.431Z,43.56
2018-02-18T00:30:16.437Z,43.61
2018-02-18T00:31:16.438Z,43.61
2018-02-18T00:32:16.428Z,43.6
2018-02-18T00:33:16.458Z,43.61
2018-02-18T00:34:16.451Z,43.61
2018-02-18T00:35:16.437Z,43.61
2018-02-18T00:36:16.473Z,43.61
2018-02-18T00:37:16.438Z,43.61
2018-02-18T00:38:16.447Z,43.56
2018-02-18T00:39:16.453Z,43.61
2018-02-18T00:40:16.458Z,43.6
2018-02-18T00:41:16.471Z,43.57
2018-02-18T00:42:16.452Z,43.56
2018-02-18T00:43:16.452Z,43.63
2018-02-18T00:44:16.428Z,43.63
2018-02-18T00:45:16.449Z,43.61
2018-02-18T00:46:16.437Z,43.63
2018-02-18T00:47:16.523Z,43.58
2018-02-18T00:48:16.431Z,43.62
2018-02-18T00:49:16.493Z,43.6
2018-02-18T00:50:16.460Z,43.56
2018-02-18T00:51:16.427Z,43.6
2018-02-18T00:52:16.472Z,43.59
2018-02-18T00:53:16.420Z,43.57
2018-02-18T00:54:16.451Z,43.58
2018-02-18T00:55:16.424Z,43.6
2018-02-18T00:56:16.431Z,43.63
2018-02-18T00:57:16.434Z,43.57
2018-02-18T00:58:16.465Z,43.54
2018-02-18T00:59:16.457Z,43.6
2018-02-18T01:00:16.434Z,43.62
2018-02-18T01:01:16.445Z,43.61
2018-02-18T01:02:16.411Z,43.59
2018-02-18T01:03:16.441Z,43.63
2018-02-18T01:04:16.604Z,43.62
2018-02-18T01:05:16.426Z,43.6
2018-02-18T01:06:16.430Z,43.6
2018-02-18T01:07:16.462Z,43.6
2018-02-18T01:08:16.450Z,43.63
2018-02-18T01:09:16.463Z,43.61
2018-02-18T01:10:16.423Z,43.6
2018-02-18T01:11:16.437Z,43.65
2018-02-18T01:12:16.412Z,43.62
2018-02-18T01:13:16.433Z,43.63
2018-02-18T01:14:16.428Z,43.62
2018-02-18T01:15:16.442Z,43.63
2018-02-18T01:16:16.476Z,43.59
2018-02-18T01:17:16.438Z,43.63
2018-02-18T01:18:16.447Z,43.59
2018-02-18T01:19:16.417Z,43.59
2018-02-18T01:20:16.699Z,43.6
2018-02-18T01:21:16.517Z,43.62
2018-02-18T01:22:16.417Z,43.64
2018-02-18T01:23:16.387Z,43.67
2018-02-18T01:24:16.425Z,43.65
2018-02-18T01:25:16.459Z,43.6
2018-02-18T01:26:16.428Z,43.55
2018-02-18T01:27:16.401Z,43.54
2018-02-18T01:28:16.420Z,43.64
2018-02-18T01:29:16.425Z,43.66
2018-02-18T01:30:16.436Z,43.63
2018-02-18T01:31:16.432Z,43.63
2018-02-18T01:32:16.456Z,43.62
2018-02-18T01:33:16.409Z,43.62
2018-02-18T01:34:16.417Z,43.66
2018-02-18T01:35:16.438Z,43.63
2018-02-18T01:36:16.459Z,43.64
2018-02-18T01:37:16.415Z,43.67
2018-02-18T01:38:16.426Z,43.65
2018-02-18T01:39:16.429Z,43.61
2018-02-18T01:40:16.419Z,43.63
2018-02-18T01:41:16.456Z,43.63
2018-02-18T01:42:16.451Z,43.62
2018-02-18T01:43:16.408Z,43.66
2018-02-18T01:44:16.435Z,43.65
2018-02-18T01:45:16.426Z,43.61
2018-02-18T01:46:16.406Z,43.66
2018-02-18T01:47:16.412Z,43.67
2018-02-18T01:48:16.426Z,43.64
2018-02-18T01:49:16.420Z,43.65
2018-02-18T01:50:16.404Z,43.7
2018-02-18T01:51:16.420Z,43.68
2018-02-18T01:52:16.454Z,43.67
2018-02-18T01:53:16.418Z,43.64
2018-02-18T01:54:16.429Z,43.64
2018-02-18T01:55:16.422Z,43.65
2018-02-18T01:56:16.418Z,43.65
2018-02-18T01:57:16.408Z,43.67
2018-02-18T01:58:16.404Z,43.66
2018-02-18T01:59:16.402Z,43.62
2018-02-18T02:00:16.415Z,43.64
2018-02-18T02:01:16.411Z,43.63
2018-02-18T02:02:16.696Z,43.65
2018-02-18T02:03:16.411Z,43.62
2018-02-18T02:04:16.400Z,43.68
2018-02-18T02:05:16.402Z,43.62
2018-02-18T02:06:16.423Z,43.66
2018-02-18T02:07:16.413Z,43.65
2018-02-18T02:08:16.402Z,43.66
2018-02-18T02:09:16.415Z,43.66
2018-02-18T02:10:16.419Z,43.65
2018-02-18T02:11:16.403Z,43.68
2018-02-18T02:12:16.413Z,43.63
2018-02-18T02:13:16.410Z,43.7
2018-02-18T02:14:16.418Z,43.69
2018-02-18T02:15:16.401Z,43.67
2018-02-18T02:16:16.426Z,43.65
2018-02-18T02:17:16.434Z,43.67
2018-02-18T02:18:16.447Z,43.65
2018-02-18T02:19:16.402Z,43.66
2018-02-18T02:20:16.426Z,43.72
2018-02-18T02:21:16.412Z,43.67
2018-02-18T02:22:16.419Z,43.75
2018-02-18T02:23:16.428Z,43.66
2018-02-18T02:24:16.392Z,43.67
2018-02-18T02:25:16.404Z,43.7
2018-02-18T02:26:16.408Z,43.68
2018-02-18T02:27:16.401Z,43.69
2018-02-18T02:28:16.398Z,43.7
2018-02-18T02:29:16.408Z,43.68
2018-02-18T02:30:16.409Z,43.76
2018-02-18T02:31:16.451Z,43.74
2018-02-18T02:32:16.411Z,43.71
2018-02-18T02:33:16.445Z,43.72
2018-02-18T02:34:16.451Z,43.7
2018-02-18T02:35:16.402Z,43.67
2018-02-18T02:36:16.408Z,43.7
2018-02-18T02:37:16.400Z,43.7
2018-02-18T02:38:16.418Z,43.69
2018-02-18T02:39:16.391Z,43.65
2018-02-18T02:40:16.410Z,43.65
2018-02-18T02:41:16.411Z,43.7
2018-02-18T02:42:16.418Z,43.71
2018-02-18T02:43:16.418Z,43.72
2018-02-18T02:44:16.438Z,43.7
2018-02-18T02:45:16.419Z,43.71
2018-02-18T02:46:16.412Z,43.74
2018-02-18T02:47:16.410Z,43.69
2018-02-18T02:48:16.386Z,43.73
2018-02-18T02:49:16.280Z,43.73
2018-02-18T02:50:16.411Z,43.68
2018-02-18T02:51:16.415Z,43.73
2018-02-18T02:52:16.833Z,43.7
2018-02-18T02:53:16.419Z,43.79
2018-02-18T02:54:16.389Z,43.72
2018-02-18T02:55:16.391Z,43.74
2018-02-18T02:56:16.413Z,43.77
2018-02-18T02:57:16.403Z,43.72
2018-02-18T02:58:16.449Z,43.79
2018-02-18T02:59:16.386Z,43.76
2018-02-18T03:00:16.453Z,43.73
2018-02-18T03:01:16.404Z,43.73
2018-02-18T03:02:16.427Z,43.76
2018-02-18T03:03:16.766Z,43.73
2018-02-18T03:04:16.405Z,43.76
2018-02-18T03:05:16.383Z,43.77
2018-02-18T03:06:16.382Z,43.81
2018-02-18T03:07:16.382Z,43.72
2018-02-18T03:08:16.400Z,43.77
2018-02-18T03:09:16.383Z,43.78
2018-02-18T03:10:16.371Z,43.79
2018-02-18T03:11:16.389Z,43.78
2018-02-18T03:12:16.392Z,43.76
2018-02-18T03:13:16.402Z,43.76
2018-02-18T03:14:16.434Z,43.73
2018-02-18T03:15:16.368Z,43.74
2018-02-18T03:16:16.388Z,43.76
2018-02-18T03:17:16.385Z,43.7
2018-02-18T03:18:16.404Z,43.75
2018-02-18T03:19:16.409Z,43.74
2018-02-18T03:20:16.400Z,43.76
2018-02-18T03:21:16.520Z,43.75
2018-02-18T03:22:16.386Z,43.76
2018-02-18T03:23:16.397Z,43.75
2018-02-18T03:24:16.364Z,43.76
2018-02-18T03:25:16.398Z,43.75
2018-02-18T03:26:16.373Z,43.71
2018-02-18T03:27:16.371Z,43.73
2018-02-18T03:28:16.450Z,43.76
2018-02-18T03:29:16.388Z,43.72
2018-02-18T03:30:16.368Z,43.75
2018-02-18T03:31:16.399Z,43.8
2018-02-18T03:32:16.435Z,43.76
2018-02-18T03:33:16.402Z,43.78
2018-02-18T03:34:16.408Z,43.7
2018-02-18T03:35:16.392Z,43.76
2018-02-18T03:36:16.370Z,43.71
2018-02-18T03:37:16.399Z,43.74
2018-02-18T03:38:16.404Z,43.72
2018-02-18T03:39:16.405Z,43.73
2018-02-18T03:40:16.427Z,43.77
2018-02-18T03:41:16.373Z,43.77
2018-02-18T03:42:16.429Z,43.75
2018-02-18T03:43:16.371Z,43.77
2018-02-18T03:44:16.384Z,43.73
2018-02-18T03:45:16.459Z,43.77
2018-02-18T03:46:16.385Z,43.79
2018-02-18T03:47:16.385Z,43.73
2018-02-18T03:48:16.374Z,43.76
2018-02-18T03:49:16.370Z,43.74
2018-02-18T03:50:16.395Z,43.78
2018-02-18T03:51:16.360Z,43.73
2018-02-18T03:52:16.383Z,43.73
2018-02-18T03:53:16.384Z,43.71
2018-02-18T03:54:16.372Z,43.7
2018-02-18T03:55:16.385Z,43.73
2018-02-18T03:56:16.385Z,43.7
2018-02-18T03:57:16.366Z,43.72
2018-02-18T03:58:16.379Z,43.69
2018-02-18T03:59:16.384Z,43.77
2018-02-18T04:00:16.416Z,43.73
2018-02-18T04:01:16.384Z,43.75
2018-02-18T04:02:16.454Z,43.73
2018-02-18T04:03:16.365Z,43.75
2018-02-18T04:04:16.365Z,43.78
2018-02-18T04:05:16.361Z,43.75
2018-02-18T04:06:16.369Z,43.73
2018-02-18T04:07:16.391Z,43.76
2018-02-18T04:08:16.377Z,43.78
2018-02-18T04:09:16.374Z,43.76
2018-02-18T04:10:16.375Z,43.71
2018-02-18T04:11:16.372Z,43.69
2018-02-18T04:12:16.365Z,43.73
2018-02-18T04:13:16.357Z,43.71
2018-02-18T04:14:16.414Z,43.76
2018-02-18T04:15:16.460Z,43.73
2018-02-18T04:16:16.384Z,43.69
2018-02-18T04:17:16.356Z,43.75
2018-02-18T04:18:16.368Z,43.72
2018-02-18T04:19:16.371Z,43.75
2018-02-18T04:20:16.360Z,43.74
2018-02-18T04:21:16.367Z,43.73
2018-02-18T04:22:16.377Z,43.76
2018-02-18T04:23:16.358Z,43.72
2018-02-18T04:24:16.357Z,43.7
2018-02-18T04:25:16.355Z,43.76
2018-02-18T04:26:16.382Z,43.68
2018-02-18T04:27:16.393Z,43.78
2018-02-18T04:28:16.361Z,43.76
2018-02-18T04:29:16.380Z,43.69
2018-02-18T04:30:16.362Z,43.67
2018-02-18T04:31:16.418Z,43.66
2018-02-18T04:32:16.385Z,43.69
2018-02-18T04:33:16.365Z,43.68
2018-02-18T04:34:16.357Z,43.7
2018-02-18T04:35:16.350Z,43.68
2018-02-18T04:36:16.357Z,43.7
2018-02-18T04:37:16.415Z,43.78
2018-02-18T04:38:16.365Z,43.69
2018-02-18T04:39:16.355Z,43.72
2018-02-18T04:40:16.377Z,43.72
2018-02-18T04:41:16.384Z,43.72
2018-02-18T04:42:16.375Z,43.68
2018-02-18T04:43:16.383Z,43.69
2018-02-18T04:44:16.361Z,43.68
2018-02-18T04:45:16.393Z,43.72
2018-02-18T04:46:16.365Z,43.7
2018-02-18T04:47:16.374Z,43.72
2018-02-18T04:48:16.486Z,43.72
2018-02-18T04:49:16.353Z,43.72
2018-02-18T04:50:16.360Z,43.65
2018-02-18T04:51:16.372Z,43.6
2018-02-18T04:52:16.372Z,43.61
2018-02-18T04:53:16.377Z,43.56
2018-02-18T04:54:16.386Z,43.53
2018-02-18T04:55:16.335Z,43.53
2018-02-18T04:56:16.361Z,43.58
2018-02-18T04:57:16.353Z,43.53
2018-02-18T04:58:16.394Z,43.53
2018-02-18T04:59:16.380Z,43.54
2018-02-18T05:00:16.352Z,43.56
2018-02-18T05:01:16.356Z,43.58
2018-02-18T05:02:16.347Z,43.67
2018-02-18T05:03:16.380Z,43.65
2018-02-18T05:04:16.356Z,43.69
2018-02-18T05:05:16.361Z,43.67
2018-02-18T05:06:16.352Z,43.72
2018-02-18T05:07:16.379Z,43.76
2018-02-18T05:08:16.344Z,43.78
2018-02-18T05:09:16.335Z,43.79
2018-02-18T05:10:16.344Z,43.83
2018-02-18T05:11:16.372Z,43.79
2018-02-18T05:12:16.327Z,43.86
2018-02-18T05:13:16.342Z,43.79
2018-02-18T05:14:16.355Z,43.88
2018-02-18T05:15:16.391Z,43.93
2018-02-18T05:16:16.350Z,43.97
2018-02-18T05:17:16.341Z,43.96
2018-02-18T05:18:16.359Z,44.02
2018-02-18T05:19:16.328Z,44.02
2018-02-18T05:20:16.350Z,44.02
2018-02-18T05:21:16.372Z,44.07
2018-02-18T05:22:16.434Z,44.05
2018-02-18T05:23:16.342Z,44.03
2018-02-18T05:24:16.338Z,44.03
2018-02-18T05:25:16.345Z,44.02
2018-02-18T05:26:16.441Z,44.03
2018-02-18T05:27:16.334Z,44.03
2018-02-18T05:28:16.340Z,44.05
2018-02-18T05:29:16.339Z,43.9
2018-02-18T05:30:16.331Z,43.92
2018-02-18T05:31:16.351Z,43.92
2018-02-18T05:32:16.342Z,43.87
2018-02-18T05:33:16.340Z,43.88
2018-02-18T05:34:16.346Z,43.88
2018-02-18T05:35:16.328Z,43.86
2018-02-18T05:36:16.347Z,43.82
2018-02-18T05:37:16.337Z,43.83
2018-02-18T05:38:16.332Z,43.81
2018-02-18T05:39:16.352Z,43.8
2018-02-18T05:40:16.331Z,43.78
2018-02-18T05:41:16.368Z,43.81
2018-02-18T05:42:16.592Z,43.78
2018-02-18T05:43:16.341Z,43.82
2018-02-18T05:44:16.332Z,43.87
2018-02-18T05:45:16.328Z,43.82
2018-02-18T05:46:16.335Z,43.86
2018-02-18T05:47:16.344Z,43.82
2018-02-18T05:48:16.338Z,43.81
2018-02-18T05:49:16.320Z,43.8
2018-02-18T05:50:16.330Z,43.79
2018-02-18T05:51:16.361Z,43.81
2018-02-18T05:52:16.373Z,43.81
2018-02-18T05:53:16.336Z,43.77
2018-02-18T05:54:16.338Z,43.77
2018-02-18T05:55:16.328Z,43.82
2018-02-18T05:56:16.338Z,43.79
2018-02-18T05:57:16.373Z,43.8
2018-02-18T05:58:16.317Z,43.8
2018-02-18T05:59:16.328Z,43.84
2018-02-18T06:00:16.334Z,43.73
2018-02-18T06:01:16.341Z,43.82
2018-02-18T06:02:16.343Z,43.74
2018-02-18T06:03:16.349Z,43.8
2018-02-18T06:04:16.327Z,43.76
2018-02-18T06:05:16.320Z,43.79
2018-02-18T06:06:16.330Z,43.74
2018-02-18T06:07:16.349Z,43.78
2018-02-18T06:08:16.342Z,43.84
2018-02-18T06:09:16.340Z,43.79
2018-02-18T06:10:16.305Z,43.76
2018-02-18T06:11:16.320Z,43.76
2018-02-18T06:12:16.382Z,43.73
2018-02-18T06:13:16.320Z,43.75
2018-02-18T06:14:16.318Z,43.78
2018-02-18T06:15:16.374Z,43.71
2018-02-18T06:16:16.329Z,43.74
2018-02-18T06:17:16.357Z,43.7
2018-02-18T06:18:16.318Z,43.73
2018-02-18T06:19:16.340Z,43.71
2018-02-18T06:20:16.342Z,43.72
2018-02-18T06:21:16.329Z,43.71
2018-02-18T06:22:16.346Z,43.69
2018-02-18T06:23:16.337Z,43.7
2018-02-18T06:24:16.314Z,43.7
2018-02-18T06:25:16.380Z,43.73
2018-02-18T06:26:16.323Z,43.65
2018-02-18T06:27:16.328Z,43.69
2018-02-18T06:28:16.310Z,43.66
2018-02-18T06:29:16.304Z,43.68
2018-02-18T06:30:16.337Z,43.67
2018-02-18T06:31:16.334Z,43.65
2018-02-18T06:32:16.341Z,43.65
2018-02-18T06:33:16.346Z,43.66
2018-02-18T06:34:16.518Z,43.61
2018-02-18T06:35:16.316Z,43.63
2018-02-18T06:36:16.355Z,43.64
2018-02-18T06:37:16.358Z,43.63
2018-02-18T06:38:16.613Z,43.59
2018-02-18T06:39:16.345Z,43.62
2018-02-18T06:40:16.306Z,43.61
2018-02-18T06:41:16.337Z,43.58
2018-02-18T06:42:16.316Z,43.56
2018-02-18T06:43:16.325Z,43.55
2018-02-18T06:44:16.390Z,43.58
2018-02-18T06:45:16.330Z,43.57
2018-02-18T06:46:16.318Z,43.56
2018-02-18T06:47:16.326Z,43.5
2018-02-18T06:48:16.307Z,43.54
2018-02-18T06:49:16.329Z,43.55
2018-02-18T06:50:16.294Z,43.51
2018-02-18T06:51:16.314Z,43.55
2018-02-18T06:52:16.392Z,43.52
2018-02-18T06:53:16.304Z,43.52
2018-02-18T06:54:16.344Z,43.48
2018-02-18T06:55:16.321Z,43.5
2018-02-18T06:56:16.317Z,43.49
2018-02-18T06:57:16.448Z,43.49
2018-02-18T06:58:16.318Z,43.48
2018-02-18T06:59:16.271Z,43.47
2018-02-18T07:00:16.350Z,43.5
2018-02-18T07:01:16.299Z,43.5
2018-02-18T07:02:16.341Z,43.47
2018-02-18T07:03:16.314Z,43.42
2018-02-18T07:04:16.312Z,43.41
2018-02-18T07:05:16.339Z,43.46
2018-02-18T07:06:16.318Z,43.41
2018-02-18T07:07:16.345Z,43.43
2018-02-18T07:08:16.315Z,43.41
2018-02-18T07:09:16.289Z,43.45
2018-02-18T07:10:16.367Z,43.39
2018-02-18T07:11:16.305Z,43.45
2018-02-18T07:12:16.338Z,43.37
2018-02-18T07:13:16.309Z,43.36
2018-02-18T07:14:16.334Z,43.39
2018-02-18T07:15:16.320Z,43.34
2018-02-18T07:16:16.306Z,43.34
2018-02-18T07:17:16.430Z,43.37
2018-02-18T07:18:16.331Z,43.32
2018-02-18T07:19:16.345Z,43.32
2018-02-18T07:20:16.380Z,43.37
2018-02-18T07:21:16.328Z,43.3
2018-02-18T07:22:16.296Z,43.34
2018-02-18T07:23:16.438Z,43.28
2018-02-18T07:24:16.296Z,43.34
2018-02-18T07:25:16.430Z,43.29
2018-02-18T07:26:16.319Z,43.29
2018-02-18T07:27:16.295Z,43.31
2018-02-18T07:28:16.323Z,43.28
2018-02-18T07:29:16.284Z,43.34
2018-02-18T07:30:16.305Z,43.29
2018-02-18T07:31:16.303Z,43.26
2018-02-18T07:32:16.311Z,43.27
2018-02-18T07:33:16.450Z,43.27
2018-02-18T07:34:16.344Z,43.22
2018-02-18T07:35:16.312Z,43.26
2018-02-18T07:36:16.317Z,43.23
2018-02-18T07:37:16.330Z,43.22
2018-02-18T07:38:16.300Z,43.24
2018-02-18T07:39:16.298Z,43.25
2018-02-18T07:40:16.292Z,43.23
2018-02-18T07:41:16.396Z,43.22
2018-02-18T07:42:16.315Z,43.19
2018-02-18T07:43:16.356Z,43.17
2018-02-18T07:44:16.291Z,43.19
2018-02-18T07:45:16.300Z,43.18
2018-02-18T07:46:16.290Z,43.2
2018-02-18T07:47:16.340Z,43.22
2018-02-18T07:48:16.627Z,43.2
2018-02-18T07:49:16.346Z,43.15
2018-02-18T07:50:16.294Z,43.18
2018-02-18T07:51:16.290Z,43.15
2018-02-18T07:52:16.288Z,43.14
2018-02-18T07:53:16.418Z,43.14
2018-02-18T07:54:16.322Z,43.16
2018-02-18T07:55:16.303Z,43.16
2018-02-18T07:56:16.281Z,43.19
2018-02-18T07:57:16.340Z,43.12
2018-02-18T07:58:16.306Z,43.11
2018-02-18T07:59:16.297Z,43.11
2018-02-18T08:00:16.297Z,43.12
2018-02-18T08:01:16.289Z,43.19
2018-02-18T08:02:16.310Z,43.12
2018-02-18T08:03:16.302Z,43.12
2018-02-18T08:04:16.558Z,43.17
2018-02-18T08:05:16.279Z,43.06
2018-02-18T08:06:16.678Z,43.16
2018-02-18T08:07:16.296Z,43.05
2018-02-18T08:08:16.286Z,43.07
2018-02-18T08:09:16.308Z,43.05
2018-02-18T08:10:16.295Z,43.03
2018-02-18T08:11:16.280Z,43.12
2018-02-18T08:12:16.294Z,43.05
2018-02-18T08:13:16.283Z,43.08
2018-02-18T08:14:16.321Z,42.97
2018-02-18T08:15:16.315Z,42.96
2018-02-18T08:16:16.314Z,43.05
2018-02-18T08:17:16.289Z,43.02
2018-02-18T08:18:16.284Z,43.01
2018-02-18T08:19:16.287Z,42.96
2018-02-18T08:20:16.285Z,42.96
2018-02-18T08:21:16.271Z,42.94
2018-02-18T08:22:16.288Z,43.05
2018-02-18T08:23:16.274Z,43.01
2018-02-18T08:24:16.319Z,43.01
2018-02-18T08:25:16.289Z,42.98
2018-02-18T08:26:16.289Z,43
2018-02-18T08:27:16.244Z,43.02
2018-02-18T08:28:16.271Z,42.99
2018-02-18T08:29:16.552Z,43
2018-02-18T08:30:16.268Z,42.94
2018-02-18T08:31:16.290Z,42.95
2018-02-18T08:32:16.357Z,42.95
2018-02-18T08:33:16.283Z,43.03
2018-02-18T08:34:16.325Z,42.95
2018-02-18T08:35:16.325Z,42.91
2018-02-18T08:36:16.264Z,43.03
2018-02-18T08:37:16.434Z,42.96
2018-02-18T08:38:16.275Z,42.96
2018-02-18T08:39:16.295Z,42.9
2018-02-18T08:40:16.280Z,42.91
2018-02-18T08:41:16.365Z,42.91
2018-02-18T08:42:16.269Z,42.96
2018-02-18T08:43:16.312Z,42.88
2018-02-18T08:44:16.522Z,42.89
2018-02-18T08:45:16.353Z,42.91
2018-02-18T08:46:16.288Z,42.99
2018-02-18T08:47:16.267Z,42.84
2018-02-18T08:48:16.287Z,42.87
2018-02-18T08:49:16.303Z,42.95
2018-02-18T08:50:16.282Z,42.88
2018-02-18T08:51:16.295Z,42.87
2018-02-18T08:52:16.277Z,42.84
2018-02-18T08:53:16.297Z,42.91
2018-02-18T08:54:16.325Z,42.85
2018-02-18T08:55:16.294Z,42.84
2018-02-18T08:56:16.331Z,42.84
2018-02-18T08:57:16.346Z,42.87
2018-02-18T08:58:16.355Z,42.88
2018-02-18T08:59:16.321Z,42.82
2018-02-18T09:00:16.311Z,42.84
2018-02-18T09:01:16.313Z,42.86
2018-02-18T09:02:16.290Z,42.87
2018-02-18T09:03:16.286Z,42.86
2018-02-18T09:04:16.367Z,42.84
2018-02-18T09:05:16.277Z,42.8
2018-02-18T09:06:16.454Z,42.85
2018-02-18T09:07:16.313Z,42.82
2018-02-18T09:08:16.341Z,42.89
2018-02-18T09:09:16.350Z,42.86
2018-02-18T09:10:16.371Z,42.84
2018-02-18T09:11:16.351Z,42.78
2018-02-18T09:12:16.283Z,42.84
2018-02-18T09:13:16.297Z,42.8
2018-02-18T09:14:16.332Z,42.8
2018-02-18T09:15:16.375Z,42.99
2018-02-18T09:16:16.361Z,43.48
2018-02-18T09:17:16.385Z,43.02
2018-02-18T09:18:16.307Z,43.18
2018-02-18T09:19:16.317Z,43.34
2018-02-18T09:20:16.330Z,43.4
2018-02-18T09:21:16.338Z,43.51
2018-02-18T09:22:16.293Z,43.92
2018-02-18T09:23:16.360Z,43.26
2018-02-18T09:24:16.498Z,43.16
2018-02-18T09:25:16.270Z,43.26
2018-02-18T09:26:16.272Z,43.35
2018-02-18T09:27:16.373Z,43.46
2018-02-18T09:28:16.364Z,43.61
2018-02-18T09:29:16.305Z,43.69
2018-02-18T09:30:16.293Z,43.71
2018-02-18T09:31:16.297Z,43.7
2018-02-18T09:32:16.324Z,43.76
2018-02-18T09:33:16.314Z,43.65
2018-02-18T09:34:16.261Z,43.72
2018-02-18T09:35:16.276Z,43.88
2018-02-18T09:36:16.286Z,43.67
2018-02-18T09:37:16.366Z,43.77
2018-02-18T09:38:16.328Z,43.75
2018-02-18T09:39:16.286Z,43.76
2018-02-18T09:40:16.268Z,43.78
2018-02-18T09:41:16.258Z,43.73
2018-02-18T09:42:16.248Z,43.77
2018-02-18T09:43:16.271Z,43.93
2018-02-18T09:44:16.307Z,43.97
2018-02-18T09:45:16.266Z,43.93
2018-02-18T09:46:16.262Z,43.75
2018-02-18T09:47:16.250Z,43.98
2018-02-18T09:48:16.256Z,43.85
2018-02-18T09:49:16.638Z,44.03
2018-02-18T09:50:16.270Z,43.74
2018-02-18T09:51:16.291Z,43.83
2018-02-18T09:52:16.523Z,43.91
2018-02-18T09:53:16.267Z,44.12
2018-02-18T09:54:16.298Z,43.89
2018-02-18T09:55:16.270Z,44.05
2018-02-18T09:56:16.266Z,44.06
2018-02-18T09:57:16.257Z,44.16
2018-02-18T09:58:16.265Z,43.67
2018-02-18T09:59:16.291Z,43.64
2018-02-18T10:00:16.346Z,43.74
2018-02-18T10:01:16.264Z,43.64
2018-02-18T10:02:16.314Z,43.8
2018-02-18T10:03:16.285Z,42.38
2018-02-18T10:04:16.288Z,42.78
2018-02-18T10:05:16.279Z,43.59
2018-02-18T10:06:16.308Z,43.19
2018-02-18T10:07:16.321Z,42.56
2018-02-18T10:08:16.274Z,42.85
2018-02-18T10:09:16.247Z,42.82
2018-02-18T10:10:16.248Z,43.03
2018-02-18T10:11:16.286Z,43.12
2018-02-18T10:12:16.317Z,42.99
2018-02-18T10:13:16.264Z,43.05
2018-02-18T10:14:16.584Z,43.1
2018-02-18T10:15:16.281Z,43.23
2018-02-18T10:16:16.577Z,43.28
2018-02-18T10:17:16.279Z,43.28
2018-02-18T10:18:16.305Z,43.27
2018-02-18T10:19:16.264Z,43.51
2018-02-18T10:20:16.298Z,43.3
2018-02-18T10:21:16.298Z,43.23
2018-02-18T10:22:16.301Z,43.26
2018-02-18T10:23:16.297Z,43.65
2018-02-18T10:24:16.673Z,43.83
2018-02-18T10:25:16.924Z,43.43
2018-02-18T10:26:16.521Z,43.39
2018-02-18T10:27:16.361Z,43.49
2018-02-18T10:28:16.274Z,43.42
2018-02-18T10:29:16.275Z,43.54
2018-02-18T10:30:16.245Z,43.62
2018-02-18T10:31:16.241Z,43.73
2018-02-18T10:32:16.349Z,43.56
2018-02-18T10:33:16.265Z,43.43
2018-02-18T10:34:16.284Z,43.59
2018-02-18T10:35:16.228Z,43.26
2018-02-18T10:36:16.319Z,43.47
2018-02-18T10:37:16.314Z,43.45
2018-02-18T10:38:16.261Z,43.37
2018-02-18T10:39:16.260Z,43.43
2018-02-18T10:40:16.429Z,43.58
2018-02-18T10:41:16.246Z,43.5
2018-02-18T10:42:16.261Z,43.58
2018-02-18T10:43:16.214Z,43.56
2018-02-18T10:44:16.233Z,43.56
2018-02-18T10:45:16.291Z,43.48
2018-02-18T10:46:16.240Z,43.49
2018-02-18T10:47:16.250Z,43.75
2018-02-18T10:48:16.321Z,43.74
2018-02-18T10:49:16.226Z,43.61
2018-02-18T10:50:16.244Z,43.7
2018-02-18T10:51:16.272Z,43.68
2018-02-18T10:52:16.238Z,43.76
2018-02-18T10:53:16.249Z,43.55
2018-02-18T10:54:16.558Z,43.62
2018-02-18T10:55:16.239Z,44.13
2018-02-18T10:56:16.279Z,44.18
2018-02-18T10:57:16.255Z,43.86
2018-02-18T10:58:16.525Z,44.04
2018-02-18T10:59:16.217Z,44.46
2018-02-18T11:00:16.238Z,43.86
2018-02-18T11:01:16.233Z,43.56
2018-02-18T11:02:16.251Z,43.84
2018-02-18T11:03:16.293Z,43.91
2018-02-18T11:04:16.233Z,44.01
2018-02-18T11:05:16.254Z,44.1
2018-02-18T11:06:16.228Z,43.82
2018-02-18T11:07:16.254Z,43.88
2018-02-18T11:08:16.252Z,44.03
2018-02-18T11:09:16.223Z,43.82
2018-02-18T11:10:16.236Z,43.85
2018-02-18T11:11:16.237Z,43.85
2018-02-18T11:12:16.285Z,43.6
2018-02-18T11:13:16.255Z,43.72
2018-02-18T11:14:16.240Z,43.86
2018-02-18T11:15:16.219Z,43.68
2018-02-18T11:16:16.182Z,43.43
2018-02-18T11:17:16.232Z,43.48
2018-02-18T11:18:16.328Z,43.44
2018-02-18T11:19:16.242Z,43.45
2018-02-18T11:20:16.223Z,43.4
2018-02-18T11:21:16.272Z,43.66
2018-02-18T11:22:16.236Z,43.74
2018-02-18T11:23:16.326Z,43.95
2018-02-18T11:24:16.443Z,43.8
2018-02-18T11:25:16.257Z,43.8
2018-02-18T11:26:16.241Z,43.74
2018-02-18T11:27:16.239Z,43.9
2018-02-18T11:28:16.235Z,43.89
2018-02-18T11:29:16.240Z,43.6
2018-02-18T11:30:16.341Z,43.75
2018-02-18T11:31:16.296Z,43.65
2018-02-18T11:32:16.219Z,43.82
2018-02-18T11:33:16.288Z,43.53
2018-02-18T11:34:16.249Z,43.82
2018-02-18T11:35:16.249Z,43.59
2018-02-18T11:36:16.336Z,43.84
2018-02-18T11:37:16.234Z,43.07
2018-02-18T11:38:16.181Z,42.79
2018-02-18T11:39:16.218Z,42.94
2018-02-18T11:40:16.269Z,43.08
2018-02-18T11:41:16.251Z,43.55
2018-02-18T11:42:16.230Z,43.48
2018-02-18T11:43:16.216Z,43.5
2018-02-18T11:44:16.225Z,43.61
2018-02-18T11:45:16.275Z,43.24
2018-02-18T11:46:16.242Z,43.84
2018-02-18T11:47:16.242Z,43.75
2018-02-18T11:48:16.266Z,43.63
2018-02-18T11:49:16.219Z,43.58
2018-02-18T11:50:16.222Z,43.21
2018-02-18T11:51:16.235Z,42.93
2018-02-18T11:52:16.514Z,43.07
2018-02-18T11:53:16.218Z,43.22
2018-02-18T11:54:16.512Z,43.12
2018-02-18T11:55:16.226Z,43.13
2018-02-18T11:56:16.213Z,43.13
2018-02-18T11:57:16.289Z,43.16
2018-02-18T11:58:16.209Z,43.19
2018-02-18T11:59:16.275Z,43.15
2018-02-18T12:00:16.221Z,43.13
2018-02-18T12:01:16.213Z,43.18
2018-02-18T12:02:16.231Z,43.16
2018-02-18T12:03:16.230Z,43.17
2018-02-18T12:04:16.221Z,43.19
2018-02-18T12:05:16.196Z,43.17
2018-02-18T12:06:16.242Z,43.18
2018-02-18T12:07:16.199Z,43.18
2018-02-18T12:08:16.251Z,43.18
2018-02-18T12:09:16.304Z,43.17
2018-02-18T12:10:16.216Z,43.18
2018-02-18T12:11:16.252Z,43.19
2018-02-18T12:12:16.209Z,43.18
2018-02-18T12:13:16.214Z,43.17
2018-02-18T12:14:16.241Z,43.2
2018-02-18T12:15:16.294Z,43.16
2018-02-18T12:16:16.203Z,43.18
2018-02-18T12:17:16.208Z,43.18
2018-02-18T12:18:16.247Z,43.18
2018-02-18T12:19:16.285Z,43.18
2018-02-18T12:20:16.235Z,43.18
2018-02-18T12:21:16.202Z,43.22
2018-02-18T12:22:16.220Z,43.17
2018-02-18T12:23:16.198Z,43.18
2018-02-18T12:24:16.260Z,43.19
2018-02-18T12:25:16.195Z,43.19
2018-02-18T12:26:16.203Z,43.14
2018-02-18T12:27:16.235Z,43.24
2018-02-18T12:28:16.196Z,43.36
2018-02-18T12:29:16.234Z,43.36
2018-02-18T12:30:16.254Z,43.36
2018-02-18T12:31:16.262Z,43.32
2018-02-18T12:32:16.236Z,43.35
2018-02-18T12:33:16.307Z,43.39
2018-02-18T12:34:16.721Z,43.34
2018-02-18T12:35:16.214Z,43.39
2018-02-18T12:36:16.252Z,43.28
2018-02-18T12:37:16.194Z,43.24
2018-02-18T12:38:16.207Z,43.02
2018-02-18T12:39:16.194Z,43.08
2018-02-18T12:40:16.217Z,43.04
2018-02-18T12:41:16.221Z,43.06
2018-02-18T12:42:16.217Z,43.09
2018-02-18T12:43:16.212Z,43.08
2018-02-18T12:44:16.197Z,43.08
2018-02-18T12:45:16.192Z,43.09
2018-02-18T12:46:16.227Z,43.07
2018-02-18T12:47:16.221Z,43.1
2018-02-18T12:48:16.282Z,43.05
2018-02-18T12:49:16.252Z,43.08
2018-02-18T12:50:16.191Z,43.04
2018-02-18T12:51:16.346Z,43.11
2018-02-18T12:52:16.179Z,43.1
2018-02-18T12:53:16.244Z,43.01
2018-02-18T12:54:16.199Z,43.07
2018-02-18T12:55:16.193Z,43.08